Airfield :
LOGIN :

Register | Disclaimer

   EN    FR    IT 

 










Legend :    VFR   Marginal VFR   IFR   Intensive IFR   Very Intensive IFR
Visi :
Ceiling :
>= 8 km
>= 3000ft
5 to 8 km
1000 to 3000 ft
1500m to 5 km
500 to 1000 ft
800 to 1500m
200 to 500 ft
< 800m
< 200 ft
Symbols :   Thunderstorms  Fog  Heavy snow  Heavy precipitations  Wind > 20 kt
SIGMETs :     Misc.  Thunderstorms  Icing  Turbulence  Mountain Waves  Volcanic Ashes







- Airport Elevation : 122 ft
- IATA code : TXL


EDDT - Berlin Tegel Int.

CURRENT METAR :
  • 202150Z 25006KT CAVOK 21/18 Q1010

EXPIRED METARs :
  • 202120Z 24004KT 210V280 CAVOK 21/18 Q1010
  • 202050Z 22006KT 190V250 CAVOK 22/18 Q1010 NOSIG
  • 202020Z 25007KT CAVOK 22/17 Q1010 NOSIG
  • 201950Z 23006KT CAVOK 23/17 Q1010 NOSIG
  • 201920Z 22007KT 9999 FEW040 BKN130 23/17 Q1010 NOSIG

TAF TAF EDDT
Valid from the 20 at 18:00 until the 21 at 18:00 UTC


201700Z 2018/2118 23005KT CAVOK
BECMG 2101/2104 29008KT
BECMG 2115/2118 02005KT
No reported NOTAMs for that airfield.



MET'MAP, your aeronautical weather chart ! - Copyright ORBIFLY December 2007 - Disclaimer

ORBIFLY MET'MAP TEAM :

Programming & Development : Alexandra Zaïnal
Concept & Development : Baudouin d'Aumeries
Co-Development & Prog : Marc-Olivier Méhu
Technical & hardware support : Manuel Goepfert

Contact : metmap@orbifly.com




SOURCES & CREDITS :

   NOAA